VTX750 EGPH-EGSS
Flight info
| Callsign | VTX750 |
|---|---|
| Flight time | 0h 58m |
| Altitude | 33000 |
| Route | GOSAM P600 FENIK L612 NAVSO DCT AKOMU DCT VAMEB UL612 LISTO |
| Aircraft | C750/M-SBDE3FGHRWXY/S |
Departure
| Time | 2026-04-25 18:40 |
|---|---|
| Airport | Edinburgh Airport (EGPH) |
Arrival
| Time | 2026-04-25 19:38 |
|---|---|
| Airport | London Stansted Airport (EGSS) |
| Time | Latitude | Longitude | Altitude | Speed | Heading |
|---|---|---|---|---|---|
| 2026-04-25 18:16 | 55.95216 | -3.35587 | 105 ft | 0 kts | 28° |
| 2026-04-25 18:29 | 55.95205 | -3.35598 | 106 ft | 3 kts | 26° |
| 2026-04-25 18:30 | 55.95163 | -3.35589 | 106 ft | 1 kts | 298° |
| 2026-04-25 18:30 | 55.95161 | -3.35585 | 106 ft | 1 kts | 298° |
| 2026-04-25 18:32 | 55.95163 | -3.35590 | 106 ft | 1 kts | 298° |
| 2026-04-25 18:32 | 55.95170 | -3.35615 | 106 ft | 5 kts | 298° |
| 2026-04-25 18:32 | 55.95196 | -3.35698 | 105 ft | 10 kts | 298° |
| 2026-04-25 18:32 | 55.95252 | -3.35825 | 101 ft | 14 kts | 321° |
| 2026-04-25 18:33 | 55.95236 | -3.35971 | 97 ft | 13 kts | 224° |
| 2026-04-25 18:33 | 55.95196 | -3.36097 | 99 ft | 10 kts | 248° |
| 2026-04-25 18:33 | 55.95163 | -3.36191 | 100 ft | 9 kts | 238° |
| 2026-04-25 18:33 | 55.95129 | -3.36295 | 101 ft | 10 kts | 238° |
| 2026-04-25 18:34 | 55.95090 | -3.36410 | 103 ft | 13 kts | 241° |
| 2026-04-25 18:34 | 55.95034 | -3.36574 | 104 ft | 19 kts | 238° |
| 2026-04-25 18:34 | 55.94951 | -3.36817 | 103 ft | 27 kts | 238° |
| 2026-04-25 18:34 | 55.94844 | -3.37134 | 101 ft | 31 kts | 239° |
| 2026-04-25 18:35 | 55.94738 | -3.37455 | 106 ft | 28 kts | 239° |
| 2026-04-25 18:35 | 55.94642 | -3.37740 | 110 ft | 26 kts | 238° |
| 2026-04-25 18:35 | 55.94548 | -3.38008 | 109 ft | 25 kts | 238° |
| 2026-04-25 18:35 | 55.94458 | -3.38276 | 107 ft | 24 kts | 239° |
| 2026-04-25 18:36 | 55.94374 | -3.38520 | 110 ft | 22 kts | 238° |
| 2026-04-25 18:36 | 55.94303 | -3.38732 | 116 ft | 19 kts | 239° |
| 2026-04-25 18:36 | 55.94295 | -3.38875 | 115 ft | 8 kts | 325° |
| 2026-04-25 18:36 | 55.94327 | -3.38907 | 115 ft | 0 kts | 330° |
| 2026-04-25 18:38 | 55.94339 | -3.38920 | 116 ft | 5 kts | 330° |
| 2026-04-25 18:38 | 55.94391 | -3.38972 | 114 ft | 11 kts | 341° |
| 2026-04-25 18:38 | 55.94432 | -3.38913 | 115 ft | 6 kts | 59° |
| 2026-04-25 18:38 | 55.94434 | -3.38907 | 115 ft | 0 kts | 59° |
| 2026-04-25 18:39 | 55.94443 | -3.38880 | 114 ft | 10 kts | 59° |
| 2026-04-25 18:39 | 55.94623 | -3.38353 | 110 ft | 103 kts | 58° |
| 2026-04-25 18:39 | 55.95081 | -3.36973 | 279 ft | 139 kts | 60° |
| 2026-04-25 18:40 | 55.95560 | -3.35507 | 797 ft | 138 kts | 59° |
| 2026-04-25 18:40 | 55.96116 | -3.34096 | 1303 ft | 141 kts | 50° |
| 2026-04-25 18:40 | 55.96851 | -3.32968 | 1916 ft | 136 kts | 46° |
| 2026-04-25 18:40 | 55.97538 | -3.31855 | 2469 ft | 135 kts | 47° |
| 2026-04-25 18:41 | 55.98240 | -3.30718 | 3028 ft | 138 kts | 44° |
| 2026-04-25 18:41 | 55.98969 | -3.29543 | 3554 ft | 144 kts | 41° |
| 2026-04-25 18:41 | 55.99793 | -3.28493 | 4054 ft | 148 kts | 20° |
| 2026-04-25 18:41 | 56.00793 | -3.28123 | 4577 ft | 148 kts | 357° |
| 2026-04-25 18:42 | 56.01805 | -3.28489 | 5064 ft | 149 kts | 331° |
| 2026-04-25 18:42 | 56.02115 | -3.28775 | 5244 ft | 148 kts | 325° |
| 2026-04-25 18:42 | 56.03192 | -3.31135 | 6086 ft | 153 kts | 289° |
| 2026-04-25 18:42 | 56.03332 | -3.33097 | 6388 ft | 171 kts | 265° |
| 2026-04-25 18:43 | 56.03037 | -3.35257 | 6613 ft | 188 kts | 257° |
| 2026-04-25 18:43 | 56.02688 | -3.37620 | 6762 ft | 205 kts | 257° |
| 2026-04-25 18:43 | 56.02310 | -3.40195 | 6755 ft | 224 kts | 257° |
| 2026-04-25 18:43 | 56.01874 | -3.43112 | 6781 ft | 260 kts | 255° |
| 2026-04-25 18:44 | 56.01408 | -3.46220 | 6764 ft | 260 kts | 256° |
| 2026-04-25 18:44 | 56.00964 | -3.49403 | 6891 ft | 271 kts | 256° |
| 2026-04-25 18:44 | 56.00522 | -3.52574 | 8189 ft | 260 kts | 256° |
| 2026-04-25 18:44 | 56.00068 | -3.55748 | 9331 ft | 266 kts | 255° |
| 2026-04-25 18:45 | 55.99604 | -3.58985 | 10311 ft | 274 kts | 255° |
| 2026-04-25 18:45 | 55.99114 | -3.62414 | 10731 ft | 297 kts | 255° |
| 2026-04-25 18:45 | 55.98578 | -3.66162 | 10923 ft | 325 kts | 255° |
| 2026-04-25 18:45 | 55.98000 | -3.70199 | 11363 ft | 339 kts | 255° |
| 2026-04-25 18:46 | 55.97414 | -3.74279 | 12255 ft | 339 kts | 255° |
| 2026-04-25 18:46 | 55.96822 | -3.78379 | 13039 ft | 344 kts | 255° |
| 2026-04-25 18:46 | 55.96216 | -3.82557 | 13749 ft | 349 kts | 255° |
| 2026-04-25 18:46 | 55.95603 | -3.86788 | 14386 ft | 355 kts | 255° |
| 2026-04-25 18:47 | 55.94982 | -3.91057 | 15138 ft | 356 kts | 254° |
| 2026-04-25 18:47 | 55.94359 | -3.95343 | 15887 ft | 357 kts | 254° |
| 2026-04-25 18:47 | 55.93525 | -3.99551 | 16382 ft | 364 kts | 242° |
| 2026-04-25 18:47 | 55.92110 | -4.03310 | 17086 ft | 366 kts | 230° |
| 2026-04-25 18:48 | 55.90229 | -4.06375 | 17843 ft | 369 kts | 217° |
| 2026-04-25 18:48 | 55.88096 | -4.08955 | 18577 ft | 372 kts | 214° |
| 2026-04-25 18:48 | 55.85935 | -4.11550 | 19217 ft | 377 kts | 215° |
| 2026-04-25 18:48 | 55.83755 | -4.14184 | 19889 ft | 381 kts | 215° |
| 2026-04-25 18:49 | 55.81551 | -4.16840 | 20574 ft | 385 kts | 215° |
| 2026-04-25 18:49 | 55.79317 | -4.19517 | 21243 ft | 389 kts | 215° |
| 2026-04-25 18:49 | 55.77128 | -4.22265 | 21872 ft | 393 kts | 217° |
| 2026-04-25 18:49 | 55.74829 | -4.24919 | 22462 ft | 399 kts | 208° |
| 2026-04-25 18:50 | 55.72146 | -4.26310 | 23090 ft | 407 kts | 191° |
| 2026-04-25 18:50 | 55.69285 | -4.26157 | 23683 ft | 418 kts | 172° |
| 2026-04-25 18:50 | 55.66532 | -4.24340 | 24190 ft | 428 kts | 155° |
| 2026-04-25 18:50 | 55.63916 | -4.21800 | 24791 ft | 430 kts | 153° |
| 2026-04-25 18:51 | 55.61312 | -4.19145 | 25342 ft | 433 kts | 153° |
| 2026-04-25 18:51 | 55.60422 | -4.18249 | 25520 ft | 434 kts | 153° |
| 2026-04-25 18:51 | 55.55991 | -4.13967 | 26446 ft | 439 kts | 154° |
| 2026-04-25 18:51 | 55.53302 | -4.11365 | 26999 ft | 442 kts | 153° |
| 2026-04-25 18:52 | 55.50643 | -4.08743 | 27555 ft | 445 kts | 153° |
| 2026-04-25 18:52 | 55.47928 | -4.06083 | 28114 ft | 448 kts | 153° |
| 2026-04-25 18:52 | 55.45188 | -4.03437 | 28675 ft | 451 kts | 154° |
| 2026-04-25 18:52 | 55.42425 | -4.00771 | 29183 ft | 455 kts | 153° |
| 2026-04-25 18:53 | 55.39641 | -3.98069 | 29739 ft | 458 kts | 153° |
| 2026-04-25 18:53 | 55.36839 | -3.95350 | 30280 ft | 461 kts | 153° |
| 2026-04-25 18:53 | 55.34012 | -3.92625 | 30734 ft | 464 kts | 153° |
| 2026-04-25 18:53 | 55.31175 | -3.89897 | 31188 ft | 467 kts | 153° |
| 2026-04-25 18:54 | 55.25515 | -3.84452 | 32561 ft | 461 kts | 153° |
| 2026-04-25 18:54 | 55.22704 | -3.81759 | 33207 ft | 459 kts | 153° |
| 2026-04-25 18:54 | 55.20820 | -3.80074 | 33624 ft | 457 kts | 155° |
| 2026-04-25 18:55 | 55.17963 | -3.77632 | 34266 ft | 456 kts | 155° |
| 2026-04-25 18:55 | 55.15136 | -3.75210 | 34829 ft | 455 kts | 155° |
| 2026-04-25 18:55 | 55.12277 | -3.72744 | 35222 ft | 459 kts | 155° |
| 2026-04-25 18:55 | 55.09373 | -3.70247 | 35203 ft | 472 kts | 155° |
| 2026-04-25 18:56 | 55.06389 | -3.67694 | 35231 ft | 483 kts | 155° |
| 2026-04-25 18:56 | 55.03336 | -3.65086 | 35236 ft | 494 kts | 155° |
| 2026-04-25 18:56 | 55.00221 | -3.62427 | 35225 ft | 504 kts | 155° |
| 2026-04-25 18:57 | 54.93785 | -3.57302 | 35222 ft | 511 kts | 158° |
| 2026-04-25 18:57 | 54.87305 | -3.52097 | 35223 ft | 514 kts | 156° |
| 2026-04-25 18:58 | 54.80812 | -3.46901 | 35219 ft | 514 kts | 157° |
| 2026-04-25 18:58 | 54.71068 | -3.39145 | 35216 ft | 514 kts | 156° |
| 2026-04-25 18:59 | 54.58078 | -3.28890 | 35213 ft | 515 kts | 157° |
| 2026-04-25 19:00 | 54.48290 | -3.21210 | 35205 ft | 515 kts | 157° |
| 2026-04-25 19:01 | 54.38491 | -3.13550 | 35212 ft | 516 kts | 157° |
| 2026-04-25 19:01 | 54.31957 | -3.08468 | 35211 ft | 516 kts | 157° |
| 2026-04-25 19:02 | 54.22149 | -3.00872 | 35211 ft | 516 kts | 157° |
| 2026-04-25 19:03 | 54.13413 | -2.94139 | 35211 ft | 518 kts | 157° |
| 2026-04-25 19:03 | 54.05773 | -2.88276 | 35212 ft | 518 kts | 157° |
| 2026-04-25 19:04 | 53.96237 | -2.79555 | 35220 ft | 519 kts | 152° |
| 2026-04-25 19:05 | 53.83444 | -2.67909 | 35218 ft | 522 kts | 153° |
| 2026-04-25 19:06 | 53.77033 | -2.62113 | 35216 ft | 522 kts | 153° |
| 2026-04-25 19:06 | 53.67457 | -2.53428 | 35218 ft | 522 kts | 153° |
| 2026-04-25 19:07 | 53.57879 | -2.44819 | 35228 ft | 522 kts | 153° |
| 2026-04-25 19:08 | 53.48260 | -2.36208 | 35225 ft | 522 kts | 153° |
| 2026-04-25 19:09 | 53.36507 | -2.25742 | 35214 ft | 522 kts | 153° |
| 2026-04-25 19:10 | 53.25795 | -2.16265 | 35207 ft | 522 kts | 153° |
| 2026-04-25 19:10 | 53.19355 | -2.10586 | 35208 ft | 526 kts | 153° |
| 2026-04-25 19:11 | 53.12892 | -2.04915 | 35212 ft | 525 kts | 154° |
| 2026-04-25 19:11 | 53.06464 | -1.99294 | 35225 ft | 522 kts | 153° |
| 2026-04-25 19:12 | 53.00029 | -1.93679 | 35225 ft | 522 kts | 154° |
| 2026-04-25 19:12 | 52.96881 | -1.90940 | 34676 ft | 499 kts | 153° |
| 2026-04-25 19:12 | 52.93871 | -1.88324 | 34000 ft | 478 kts | 154° |
| 2026-04-25 19:12 | 52.90963 | -1.85803 | 33371 ft | 466 kts | 154° |
| 2026-04-25 19:13 | 52.88090 | -1.83321 | 32760 ft | 469 kts | 154° |
| 2026-04-25 19:13 | 52.85177 | -1.80806 | 32143 ft | 474 kts | 154° |
| 2026-04-25 19:13 | 52.82248 | -1.78275 | 31518 ft | 477 kts | 154° |
| 2026-04-25 19:13 | 52.79297 | -1.75730 | 30884 ft | 480 kts | 154° |
| 2026-04-25 19:14 | 52.76336 | -1.73183 | 30239 ft | 478 kts | 154° |
| 2026-04-25 19:14 | 52.74385 | -1.71506 | 29779 ft | 475 kts | 154° |
| 2026-04-25 19:14 | 52.70439 | -1.68121 | 29193 ft | 484 kts | 154° |
| 2026-04-25 19:14 | 52.67486 | -1.65591 | 29184 ft | 466 kts | 154° |
| 2026-04-25 19:15 | 52.64591 | -1.63114 | 29191 ft | 469 kts | 154° |
| 2026-04-25 19:15 | 52.61759 | -1.60698 | 28936 ft | 464 kts | 154° |
| 2026-04-25 19:15 | 52.58872 | -1.58239 | 28092 ft | 465 kts | 154° |
| 2026-04-25 19:15 | 52.56010 | -1.55802 | 27220 ft | 461 kts | 154° |
| 2026-04-25 19:16 | 52.53176 | -1.53390 | 26363 ft | 456 kts | 154° |
| 2026-04-25 19:16 | 52.50372 | -1.51010 | 25368 ft | 451 kts | 154° |
| 2026-04-25 19:16 | 52.47596 | -1.48658 | 24443 ft | 446 kts | 154° |
| 2026-04-25 19:16 | 52.44859 | -1.46342 | 23466 ft | 439 kts | 154° |
| 2026-04-25 19:17 | 52.42176 | -1.44073 | 22841 ft | 424 kts | 154° |
| 2026-04-25 19:17 | 52.39545 | -1.41852 | 22319 ft | 425 kts | 154° |
| 2026-04-25 19:17 | 52.36922 | -1.39643 | 21765 ft | 423 kts | 154° |
| 2026-04-25 19:17 | 52.34312 | -1.37446 | 21206 ft | 419 kts | 154° |
| 2026-04-25 19:18 | 52.31731 | -1.35275 | 20659 ft | 415 kts | 154° |
| 2026-04-25 19:18 | 52.29186 | -1.33078 | 20100 ft | 412 kts | 151° |
| 2026-04-25 19:18 | 52.26740 | -1.30687 | 19723 ft | 409 kts | 151° |
| 2026-04-25 19:18 | 52.24267 | -1.28426 | 19322 ft | 407 kts | 152° |
| 2026-04-25 19:19 | 52.21805 | -1.26173 | 18912 ft | 404 kts | 151° |
| 2026-04-25 19:19 | 52.19390 | -1.23867 | 18498 ft | 401 kts | 150° |
| 2026-04-25 19:19 | 52.16997 | -1.21577 | 18063 ft | 398 kts | 151° |
| 2026-04-25 19:19 | 52.15413 | -1.20093 | 17795 ft | 396 kts | 151° |
| 2026-04-25 19:20 | 52.12253 | -1.17161 | 17261 ft | 393 kts | 151° |
| 2026-04-25 19:20 | 52.09887 | -1.14942 | 16863 ft | 391 kts | 151° |
| 2026-04-25 19:20 | 52.07538 | -1.12732 | 16472 ft | 389 kts | 151° |
| 2026-04-25 19:20 | 52.05204 | -1.10550 | 16067 ft | 386 kts | 151° |
| 2026-04-25 19:21 | 52.02899 | -1.08322 | 15636 ft | 385 kts | 147° |
| 2026-04-25 19:21 | 52.00061 | -1.02043 | 15168 ft | 406 kts | 109° |
| 2026-04-25 19:21 | 51.99629 | -0.97426 | 15195 ft | 423 kts | 91° |
| 2026-04-25 19:22 | 51.99606 | -0.92721 | 15069 ft | 401 kts | 89° |
| 2026-04-25 19:22 | 51.99657 | -0.88325 | 14394 ft | 380 kts | 88° |
| 2026-04-25 19:22 | 51.99662 | -0.79924 | 12982 ft | 367 kts | 89° |
| 2026-04-25 19:23 | 51.99806 | -0.75889 | 12268 ft | 350 kts | 83° |
| 2026-04-25 19:23 | 52.00404 | -0.68541 | 10896 ft | 317 kts | 81° |
| 2026-04-25 19:23 | 52.00713 | -0.65091 | 10507 ft | 302 kts | 81° |
| 2026-04-25 19:24 | 52.01013 | -0.61762 | 10061 ft | 295 kts | 81° |
| 2026-04-25 19:24 | 52.01309 | -0.58489 | 9583 ft | 291 kts | 81° |
| 2026-04-25 19:24 | 52.01892 | -0.52046 | 8645 ft | 285 kts | 81° |
| 2026-04-25 19:25 | 52.02458 | -0.45736 | 7983 ft | 273 kts | 81° |
| 2026-04-25 19:25 | 52.02731 | -0.42675 | 8057 ft | 279 kts | 81° |
| 2026-04-25 19:25 | 52.03008 | -0.39592 | 8062 ft | 280 kts | 81° |
| 2026-04-25 19:26 | 52.03294 | -0.36395 | 8057 ft | 282 kts | 81° |
| 2026-04-25 19:26 | 52.03576 | -0.33240 | 8056 ft | 282 kts | 81° |
| 2026-04-25 19:26 | 52.03859 | -0.30082 | 8061 ft | 283 kts | 81° |
| 2026-04-25 19:26 | 52.04022 | -0.26948 | 8002 ft | 285 kts | 93° |
| 2026-04-25 19:27 | 52.03554 | -0.23837 | 7951 ft | 284 kts | 109° |
| 2026-04-25 19:27 | 52.03061 | -0.21827 | 7964 ft | 284 kts | 112° |
| 2026-04-25 19:27 | 52.02021 | -0.17924 | 7973 ft | 284 kts | 113° |
| 2026-04-25 19:27 | 52.01205 | -0.15001 | 7975 ft | 284 kts | 112° |
| 2026-04-25 19:28 | 52.00569 | -0.11963 | 7964 ft | 284 kts | 103° |
| 2026-04-25 19:28 | 52.00276 | -0.08806 | 7958 ft | 283 kts | 95° |
| 2026-04-25 19:28 | 52.00095 | -0.05623 | 7956 ft | 283 kts | 95° |
| 2026-04-25 19:28 | 51.99825 | -0.02566 | 7936 ft | 262 kts | 98° |
| 2026-04-25 19:29 | 51.99537 | 0.00266 | 7858 ft | 250 kts | 96° |
| 2026-04-25 19:29 | 51.99746 | 0.03022 | 7619 ft | 248 kts | 66° |
| 2026-04-25 19:29 | 52.00762 | 0.05211 | 7446 ft | 242 kts | 37° |
| 2026-04-25 19:29 | 52.02263 | 0.06315 | 7298 ft | 238 kts | 9° |
| 2026-04-25 19:30 | 52.03869 | 0.06814 | 7157 ft | 238 kts | 23° |
| 2026-04-25 19:30 | 52.05040 | 0.08696 | 6949 ft | 244 kts | 62° |
| 2026-04-25 19:30 | 52.05363 | 0.11353 | 6855 ft | 243 kts | 84° |
| 2026-04-25 19:30 | 52.05429 | 0.14096 | 6849 ft | 244 kts | 86° |
| 2026-04-25 19:31 | 52.05488 | 0.16856 | 6835 ft | 245 kts | 86° |
| 2026-04-25 19:31 | 52.05552 | 0.19712 | 6639 ft | 253 kts | 86° |
| 2026-04-25 19:31 | 52.05614 | 0.22508 | 6397 ft | 244 kts | 86° |
| 2026-04-25 19:31 | 52.05674 | 0.25246 | 6269 ft | 237 kts | 86° |
| 2026-04-25 19:32 | 52.05736 | 0.27924 | 6297 ft | 240 kts | 86° |
| 2026-04-25 19:32 | 52.05802 | 0.30661 | 6036 ft | 241 kts | 86° |
| 2026-04-25 19:32 | 52.05871 | 0.33364 | 5772 ft | 239 kts | 86° |
| 2026-04-25 19:32 | 52.05895 | 0.34274 | 5685 ft | 238 kts | 86° |
| 2026-04-25 19:33 | 52.05179 | 0.38563 | 4986 ft | 239 kts | 115° |
| 2026-04-25 19:33 | 52.04439 | 0.40950 | 4564 ft | 235 kts | 116° |
| 2026-04-25 19:33 | 52.03480 | 0.43064 | 4025 ft | 237 kts | 142° |
| 2026-04-25 19:33 | 52.01938 | 0.43797 | 3547 ft | 233 kts | 185° |
| 2026-04-25 19:34 | 52.00536 | 0.42682 | 3339 ft | 229 kts | 226° |
| 2026-04-25 19:34 | 51.99651 | 0.40539 | 3111 ft | 225 kts | 237° |
| 2026-04-25 19:34 | 51.98637 | 0.38711 | 2811 ft | 211 kts | 223° |
| 2026-04-25 19:34 | 51.97584 | 0.37172 | 2531 ft | 197 kts | 223° |
| 2026-04-25 19:35 | 51.96643 | 0.35741 | 2250 ft | 169 kts | 223° |
| 2026-04-25 19:35 | 51.95850 | 0.34543 | 2039 ft | 143 kts | 223° |
| 2026-04-25 19:35 | 51.95165 | 0.33512 | 1857 ft | 128 kts | 222° |
| 2026-04-25 19:35 | 51.94521 | 0.32543 | 1695 ft | 125 kts | 222° |
| 2026-04-25 19:36 | 51.93888 | 0.31591 | 1538 ft | 124 kts | 222° |
| 2026-04-25 19:36 | 51.93259 | 0.30645 | 1377 ft | 123 kts | 221° |
| 2026-04-25 19:36 | 51.92637 | 0.29694 | 1205 ft | 122 kts | 222° |
| 2026-04-25 19:36 | 51.92023 | 0.28752 | 1021 ft | 121 kts | 221° |
| 2026-04-25 19:37 | 51.91405 | 0.27815 | 850 ft | 118 kts | 221° |
| 2026-04-25 19:37 | 51.90831 | 0.26950 | 678 ft | 110 kts | 221° |
| 2026-04-25 19:37 | 51.90279 | 0.26123 | 519 ft | 108 kts | 221° |
| 2026-04-25 19:37 | 51.89731 | 0.25311 | 403 ft | 105 kts | 220° |
| 2026-04-25 19:38 | 51.89213 | 0.24527 | 336 ft | 94 kts | 221° |
| 2026-04-25 19:38 | 51.88876 | 0.24038 | 335 ft | 41 kts | 224° |
| 2026-04-25 19:38 | 51.88679 | 0.23752 | 333 ft | 30 kts | 217° |
| 2026-04-25 19:38 | 51.88544 | 0.23602 | 334 ft | 21 kts | 197° |
| 2026-04-25 19:39 | 51.88410 | 0.23534 | 335 ft | 19 kts | 193° |
| 2026-04-25 19:39 | 51.88295 | 0.23493 | 335 ft | 8 kts | 192° |
| 2026-04-25 19:39 | 51.88251 | 0.23499 | 335 ft | 0 kts | 147° |
| 2026-04-25 19:41 | 51.88248 | 0.23505 | 335 ft | 4 kts | 134° |
| 2026-04-25 19:41 | 51.88203 | 0.23586 | 335 ft | 17 kts | 133° |
| 2026-04-25 19:41 | 51.88175 | 0.23634 | 335 ft | 17 kts | 133° |
| 2026-04-25 19:42 | 51.88202 | 0.23815 | 335 ft | 10 kts | 43° |
| 2026-04-25 19:42 | 51.88267 | 0.23914 | 336 ft | 18 kts | 43° |
| 2026-04-25 19:42 | 51.88387 | 0.24094 | 338 ft | 28 kts | 42° |
| 2026-04-25 19:42 | 51.88483 | 0.24239 | 339 ft | 27 kts | 43° |
| 2026-04-25 19:43 | 51.88663 | 0.24507 | 338 ft | 26 kts | 41° |
| 2026-04-25 19:43 | 51.88749 | 0.24640 | 338 ft | 25 kts | 45° |
| 2026-04-25 19:43 | 51.88876 | 0.24823 | 338 ft | 24 kts | 41° |
| 2026-04-25 19:43 | 51.88998 | 0.25010 | 339 ft | 24 kts | 43° |
| 2026-04-25 19:44 | 51.89117 | 0.25189 | 337 ft | 23 kts | 42° |
| 2026-04-25 19:44 | 51.89230 | 0.25360 | 341 ft | 22 kts | 42° |
| 2026-04-25 19:44 | 51.89341 | 0.25521 | 341 ft | 21 kts | 44° |
| 2026-04-25 19:44 | 51.89445 | 0.25681 | 338 ft | 20 kts | 43° |
| 2026-04-25 19:45 | 51.89548 | 0.25836 | 338 ft | 20 kts | 44° |
| 2026-04-25 19:45 | 51.89651 | 0.25985 | 339 ft | 20 kts | 45° |
| 2026-04-25 19:45 | 51.89738 | 0.26137 | 336 ft | 15 kts | 80° |
| 2026-04-25 19:45 | 51.89705 | 0.26207 | 344 ft | 6 kts | 144° |
| 2026-04-25 19:46 | 51.89682 | 0.26196 | 341 ft | 3 kts | 228° |
| 2026-04-25 19:46 | 51.89667 | 0.26172 | 342 ft | 3 kts | 223° |
| 2026-04-25 19:46 | 51.89660 | 0.26162 | 341 ft | 0 kts | 222° |